sensor_id;sensor_type;location;lat;lon;timestamp;temperature;humidity
2062;DHT22;11070;51.336;12.340;2023-05-29T00:00:35;13.80;99.90
2062;DHT22;11070;51.336;12.340;2023-05-29T00:03:00;13.80;99.90
2062;DHT22;11070;51.336;12.340;2023-05-29T00:05:27;13.80;99.90
2062;DHT22;11070;51.336;12.340;2023-05-29T00:07:52;13.70;99.90
2062;DHT22;11070;51.336;12.340;2023-05-29T00:10:18;13.60;99.90
2062;DHT22;11070;51.336;12.340;2023-05-29T00:12:44;13.60;99.90
2062;DHT22;11070;51.336;12.340;2023-05-29T00:15:10;13.50;99.90
2062;DHT22;11070;51.336;12.340;2023-05-29T00:17:38;13.40;99.90
2062;DHT22;11070;51.336;12.340;2023-05-29T00:20:06;13.40;99.90
2062;DHT22;11070;51.336;12.340;2023-05-29T00:22:35;13.40;99.90
2062;DHT22;11070;51.336;12.340;2023-05-29T00:25:06;13.40;99.90
2062;DHT22;11070;51.336;12.340;2023-05-29T00:27:32;13.40;99.90
2062;DHT22;11070;51.336;12.340;2023-05-29T00:30:01;13.30;99.90
2062;DHT22;11070;51.336;12.340;2023-05-29T00:32:26;13.20;99.90
2062;DHT22;11070;51.336;12.340;2023-05-29T00:34:55;13.20;99.90
2062;DHT22;11070;51.336;12.340;2023-05-29T00:37:21;13.10;99.90
2062;DHT22;11070;51.336;12.340;2023-05-29T00:39:50;12.80;99.90
2062;DHT22;11070;51.336;12.340;2023-05-29T00:42:16;13.00;99.90
2062;DHT22;11070;51.336;12.340;2023-05-29T00:44:42;12.90;99.90
2062;DHT22;11070;51.336;12.340;2023-05-29T00:47:07;12.90;99.90
2062;DHT22;11070;51.336;12.340;2023-05-29T00:49:35;12.90;99.90
2062;DHT22;11070;51.336;12.340;2023-05-29T00:52:01;12.80;99.90
2062;DHT22;11070;51.336;12.340;2023-05-29T00:54:29;12.80;99.90
2062;DHT22;11070;51.336;12.340;2023-05-29T00:56:57;12.80;99.90
2062;DHT22;11070;51.336;12.340;2023-05-29T00:59:23;12.80;99.90
2062;DHT22;11070;51.336;12.340;2023-05-29T01:01:50;12.80;99.90
2062;DHT22;11070;51.336;12.340;2023-05-29T01:04:17;12.70;99.90
2062;DHT22;11070;51.336;12.340;2023-05-29T01:06:43;12.70;99.90
2062;DHT22;11070;51.336;12.340;2023-05-29T01:09:10;12.60;99.90
2062;DHT22;11070;51.336;12.340;2023-05-29T01:11:58;12.50;99.90
2062;DHT22;11070;51.336;12.340;2023-05-29T01:17:28;12.50;99.90
2062;DHT22;11070;51.336;12.340;2023-05-29T01:20:08;12.40;99.90
2062;DHT22;11070;51.336;12.340;2023-05-29T01:26:11;12.40;99.90
2062;DHT22;11070;51.336;12.340;2023-05-29T01:28:20;12.50;99.90
2062;DHT22;11070;51.336;12.340;2023-05-29T01:30:48;12.50;99.90
2062;DHT22;11070;51.336;12.340;2023-05-29T01:33:14;12.60;99.90
2062;DHT22;11070;51.336;12.340;2023-05-29T01:35:40;12.70;99.90
2062;DHT22;11070;51.336;12.340;2023-05-29T01:38:06;12.60;99.90
2062;DHT22;11070;51.336;12.340;2023-05-29T01:40:32;12.60;99.90
2062;DHT22;11070;51.336;12.340;2023-05-29T01:42:57;12.50;99.90
2062;DHT22;11070;51.336;12.340;2023-05-29T01:45:23;12.50;99.90
2062;DHT22;11070;51.336;12.340;2023-05-29T01:47:49;12.50;99.90
2062;DHT22;11070;51.336;12.340;2023-05-29T01:50:17;12.50;99.90
2062;DHT22;11070;51.336;12.340;2023-05-29T01:52:43;12.50;99.90
2062;DHT22;11070;51.336;12.340;2023-05-29T01:55:09;12.50;99.90
2062;DHT22;11070;51.336;12.340;2023-05-29T01:57:36;12.50;99.90
2062;DHT22;11070;51.336;12.340;2023-05-29T02:00:06;12.50;99.90
2062;DHT22;11070;51.336;12.340;2023-05-29T02:02:40;12.50;99.90
2062;DHT22;11070;51.336;12.340;2023-05-29T02:05:07;12.50;99.90
2062;DHT22;11070;51.336;12.340;2023-05-29T02:07:34;12.50;99.90
2062;DHT22;11070;51.336;12.340;2023-05-29T02:10:03;12.50;99.90
2062;DHT22;11070;51.336;12.340;2023-05-29T02:12:29;12.40;99.90
2062;DHT22;11070;51.336;12.340;2023-05-29T02:14:54;12.40;99.90
2062;DHT22;11070;51.336;12.340;2023-05-29T02:17:21;12.30;99.90
2062;DHT22;11070;51.336;12.340;2023-05-29T02:19:46;12.20;99.90
2062;DHT22;11070;51.336;12.340;2023-05-29T02:22:12;12.20;99.90
2062;DHT22;11070;51.336;12.340;2023-05-29T02:24:38;12.20;99.90
2062;DHT22;11070;51.336;12.340;2023-05-29T02:27:04;12.20;99.90
2062;DHT22;11070;51.336;12.340;2023-05-29T02:29:29;12.10;99.90
2062;DHT22;11070;51.336;12.340;2023-05-29T02:31:55;12.10;99.90
2062;DHT22;11070;51.336;12.340;2023-05-29T02:34:21;12.10;99.90
2062;DHT22;11070;51.336;12.340;2023-05-29T02:36:50;12.10;99.90
2062;DHT22;11070;51.336;12.340;2023-05-29T02:39:17;12.00;99.90
2062;DHT22;11070;51.336;12.340;2023-05-29T02:41:43;11.90;99.90
2062;DHT22;11070;51.336;12.340;2023-05-29T02:44:09;11.90;99.90
2062;DHT22;11070;51.336;12.340;2023-05-29T02:46:34;11.90;99.90
2062;DHT22;11070;51.336;12.340;2023-05-29T02:49:00;11.80;99.90
2062;DHT22;11070;51.336;12.340;2023-05-29T02:51:26;11.90;99.90
2062;DHT22;11070;51.336;12.340;2023-05-29T02:53:52;11.90;99.90
2062;DHT22;11070;51.336;12.340;2023-05-29T02:56:19;11.90;99.90
2062;DHT22;11070;51.336;12.340;2023-05-29T02:58:52;11.90;99.90
2062;DHT22;11070;51.336;12.340;2023-05-29T03:01:18;11.90;99.90
2062;DHT22;11070;51.336;12.340;2023-05-29T03:03:44;11.80;99.90
2062;DHT22;11070;51.336;12.340;2023-05-29T03:06:10;11.80;99.90
2062;DHT22;11070;51.336;12.340;2023-05-29T03:08:38;11.80;99.90
2062;DHT22;11070;51.336;12.340;2023-05-29T03:11:09;11.80;99.90
2062;DHT22;11070;51.336;12.340;2023-05-29T03:13:36;11.80;99.90
2062;DHT22;11070;51.336;12.340;2023-05-29T03:16:04;11.80;99.90
2062;DHT22;11070;51.336;12.340;2023-05-29T03:18:29;11.70;99.90
2062;DHT22;11070;51.336;12.340;2023-05-29T03:20:55;11.70;99.90
2062;DHT22;11070;51.336;12.340;2023-05-29T03:23:21;11.70;99.90
2062;DHT22;11070;51.336;12.340;2023-05-29T03:25:46;11.70;99.90
2062;DHT22;11070;51.336;12.340;2023-05-29T03:28:12;11.70;99.90
2062;DHT22;11070;51.336;12.340;2023-05-29T03:30:38;11.70;99.90
2062;DHT22;11070;51.336;12.340;2023-05-29T03:33:03;11.70;99.90
2062;DHT22;11070;51.336;12.340;2023-05-29T03:35:30;11.70;99.90
2062;DHT22;11070;51.336;12.340;2023-05-29T03:37:56;11.60;99.90
2062;DHT22;11070;51.336;12.340;2023-05-29T03:40:21;11.50;99.90
2062;DHT22;11070;51.336;12.340;2023-05-29T03:42:47;11.50;99.90
2062;DHT22;11070;51.336;12.340;2023-05-29T03:45:12;11.40;99.90
2062;DHT22;11070;51.336;12.340;2023-05-29T03:47:38;11.40;99.90
2062;DHT22;11070;51.336;12.340;2023-05-29T03:50:04;11.30;99.90
2062;DHT22;11070;51.336;12.340;2023-05-29T03:52:30;11.30;99.90
2062;DHT22;11070;51.336;12.340;2023-05-29T03:54:55;11.30;99.90
2062;DHT22;11070;51.336;12.340;2023-05-29T03:57:21;11.40;99.90
2062;DHT22;11070;51.336;12.340;2023-05-29T03:59:47;11.40;99.90
2062;DHT22;11070;51.336;12.340;2023-05-29T04:02:12;11.40;99.90
2062;DHT22;11070;51.336;12.340;2023-05-29T04:04:38;11.40;99.90
2062;DHT22;11070;51.336;12.340;2023-05-29T04:07:05;11.50;99.90
2062;DHT22;11070;51.336;12.340;2023-05-29T04:09:32;11.50;99.90
2062;DHT22;11070;51.336;12.340;2023-05-29T04:11:58;11.60;99.90
2062;DHT22;11070;51.336;12.340;2023-05-29T04:14:25;11.60;99.90
2062;DHT22;11070;51.336;12.340;2023-05-29T04:16:50;11.70;99.90
2062;DHT22;11070;51.336;12.340;2023-05-29T04:19:16;11.70;99.90
2062;DHT22;11070;51.336;12.340;2023-05-29T04:21:42;11.80;99.90
2062;DHT22;11070;51.336;12.340;2023-05-29T04:24:08;11.80;99.90
2062;DHT22;11070;51.336;12.340;2023-05-29T04:26:33;11.80;99.90
2062;DHT22;11070;51.336;12.340;2023-05-29T04:28:59;11.90;99.90
2062;DHT22;11070;51.336;12.340;2023-05-29T04:31:25;12.00;99.90
2062;DHT22;11070;51.336;12.340;2023-05-29T04:33:53;12.10;99.90
2062;DHT22;11070;51.336;12.340;2023-05-29T04:36:26;12.20;99.90
2062;DHT22;11070;51.336;12.340;2023-05-29T04:38:52;12.30;99.90
2062;DHT22;11070;51.336;12.340;2023-05-29T04:41:18;12.20;99.90
2062;DHT22;11070;51.336;12.340;2023-05-29T04:43:44;12.20;99.90
2062;DHT22;11070;51.336;12.340;2023-05-29T04:46:11;12.30;99.90
2062;DHT22;11070;51.336;12.340;2023-05-29T04:48:40;12.30;99.90
2062;DHT22;11070;51.336;12.340;2023-05-29T04:51:09;12.30;99.90
2062;DHT22;11070;51.336;12.340;2023-05-29T04:53:39;12.40;99.90
2062;DHT22;11070;51.336;12.340;2023-05-29T04:56:06;12.50;99.90
2062;DHT22;11070;51.336;12.340;2023-05-29T04:58:32;12.60;99.90
2062;DHT22;11070;51.336;12.340;2023-05-29T05:00:57;12.70;99.90
2062;DHT22;11070;51.336;12.340;2023-05-29T05:03:24;12.80;99.90
2062;DHT22;11070;51.336;12.340;2023-05-29T05:05:51;12.90;99.90
2062;DHT22;11070;51.336;12.340;2023-05-29T05:08:17;13.10;99.90
2062;DHT22;11070;51.336;12.340;2023-05-29T05:10:43;13.20;99.90
2062;DHT22;11070;51.336;12.340;2023-05-29T05:13:09;13.30;99.90
2062;DHT22;11070;51.336;12.340;2023-05-29T05:15:36;13.40;99.90
2062;DHT22;11070;51.336;12.340;2023-05-29T05:18:02;13.60;99.90
2062;DHT22;11070;51.336;12.340;2023-05-29T05:20:27;13.70;99.90
2062;DHT22;11070;51.336;12.340;2023-05-29T05:22:53;13.80;99.90
2062;DHT22;11070;51.336;12.340;2023-05-29T05:25:19;13.90;99.90
2062;DHT22;11070;51.336;12.340;2023-05-29T05:27:44;14.10;99.90
2062;DHT22;11070;51.336;12.340;2023-05-29T05:30:10;14.30;99.90
2062;DHT22;11070;51.336;12.340;2023-05-29T05:32:36;14.40;99.90
2062;DHT22;11070;51.336;12.340;2023-05-29T05:35:02;14.50;99.90
2062;DHT22;11070;51.336;12.340;2023-05-29T05:37:28;14.60;99.90
2062;DHT22;11070;51.336;12.340;2023-05-29T05:39:54;14.70;99.90
2062;DHT22;11070;51.336;12.340;2023-05-29T05:42:20;14.70;99.90
2062;DHT22;11070;51.336;12.340;2023-05-29T05:44:45;14.70;99.90
2062;DHT22;11070;51.336;12.340;2023-05-29T05:47:11;14.80;99.90
2062;DHT22;11070;51.336;12.340;2023-05-29T05:49:37;14.80;99.90
2062;DHT22;11070;51.336;12.340;2023-05-29T05:52:03;14.90;99.90
2062;DHT22;11070;51.336;12.340;2023-05-29T05:54:29;15.00;99.90
2062;DHT22;11070;51.336;12.340;2023-05-29T05:56:54;15.00;99.90
2062;DHT22;11070;51.336;12.340;2023-05-29T05:59:20;15.00;99.90
2062;DHT22;11070;51.336;12.340;2023-05-29T06:01:46;15.10;99.90
2062;DHT22;11070;51.336;12.340;2023-05-29T06:04:12;15.30;99.90
2062;DHT22;11070;51.336;12.340;2023-05-29T06:06:37;15.40;99.90
2062;DHT22;11070;51.336;12.340;2023-05-29T06:09:03;15.50;99.90
2062;DHT22;11070;51.336;12.340;2023-05-29T06:11:30;15.60;99.90
2062;DHT22;11070;51.336;12.340;2023-05-29T06:13:55;15.70;99.90
2062;DHT22;11070;51.336;12.340;2023-05-29T06:16:21;15.60;99.90
2062;DHT22;11070;51.336;12.340;2023-05-29T06:18:47;15.70;99.90
2062;DHT22;11070;51.336;12.340;2023-05-29T06:21:13;15.80;99.90
2062;DHT22;11070;51.336;12.340;2023-05-29T06:23:39;16.10;99.90
2062;DHT22;11070;51.336;12.340;2023-05-29T06:26:04;16.30;99.90
2062;DHT22;11070;51.336;12.340;2023-05-29T06:28:30;16.50;99.90
2062;DHT22;11070;51.336;12.340;2023-05-29T06:30:56;16.70;99.90
2062;DHT22;11070;51.336;12.340;2023-05-29T06:33:22;16.80;99.90
2062;DHT22;11070;51.336;12.340;2023-05-29T06:35:48;17.00;99.90
2062;DHT22;11070;51.336;12.340;2023-05-29T06:38:14;17.10;99.90
2062;DHT22;11070;51.336;12.340;2023-05-29T06:40:40;17.20;99.90
2062;DHT22;11070;51.336;12.340;2023-05-29T06:43:06;17.30;99.90
2062;DHT22;11070;51.336;12.340;2023-05-29T06:45:31;17.40;99.90
2062;DHT22;11070;51.336;12.340;2023-05-29T06:47:57;17.50;99.90
2062;DHT22;11070;51.336;12.340;2023-05-29T06:50:23;17.60;99.90
2062;DHT22;11070;51.336;12.340;2023-05-29T06:52:48;17.70;99.90
2062;DHT22;11070;51.336;12.340;2023-05-29T06:55:14;17.90;99.90
2062;DHT22;11070;51.336;12.340;2023-05-29T06:57:40;18.00;99.90
2062;DHT22;11070;51.336;12.340;2023-05-29T07:00:06;18.30;99.90
2062;DHT22;11070;51.336;12.340;2023-05-29T07:02:33;18.40;99.90
2062;DHT22;11070;51.336;12.340;2023-05-29T07:04:58;18.60;99.90
2062;DHT22;11070;51.336;12.340;2023-05-29T07:07:24;18.80;99.90
2062;DHT22;11070;51.336;12.340;2023-05-29T07:09:50;18.90;99.90
2062;DHT22;11070;51.336;12.340;2023-05-29T07:12:15;18.90;99.90
2062;DHT22;11070;51.336;12.340;2023-05-29T07:14:41;19.20;99.90
2062;DHT22;11070;51.336;12.340;2023-05-29T07:17:07;19.50;99.90
2062;DHT22;11070;51.336;12.340;2023-05-29T07:19:32;19.60;99.90
2062;DHT22;11070;51.336;12.340;2023-05-29T07:21:59;19.80;99.90
2062;DHT22;11070;51.336;12.340;2023-05-29T07:24:25;20.00;99.90
2062;DHT22;11070;51.336;12.340;2023-05-29T07:26:51;20.20;99.90
2062;DHT22;11070;51.336;12.340;2023-05-29T07:29:16;20.40;99.90
2062;DHT22;11070;51.336;12.340;2023-05-29T07:31:43;20.30;99.90
2062;DHT22;11070;51.336;12.340;2023-05-29T07:34:10;20.30;99.90
2062;DHT22;11070;51.336;12.340;2023-05-29T07:36:36;20.40;99.90
2062;DHT22;11070;51.336;12.340;2023-05-29T07:39:02;20.80;99.90
2062;DHT22;11070;51.336;12.340;2023-05-29T07:41:28;21.00;98.10
2062;DHT22;11070;51.336;12.340;2023-05-29T07:43:53;20.90;97.30
2062;DHT22;11070;51.336;12.340;2023-05-29T07:46:20;21.10;96.80
2062;DHT22;11070;51.336;12.340;2023-05-29T07:48:46;21.40;93.50
2062;DHT22;11070;51.336;12.340;2023-05-29T07:51:12;21.50;92.90
2062;DHT22;11070;51.336;12.340;2023-05-29T07:53:38;21.80;91.80
2062;DHT22;11070;51.336;12.340;2023-05-29T07:56:04;21.90;90.20
2062;DHT22;11070;51.336;12.340;2023-05-29T07:58:30;22.00;89.80
2062;DHT22;11070;51.336;12.340;2023-05-29T08:00:58;22.20;89.00
2062;DHT22;11070;51.336;12.340;2023-05-29T08:03:24;22.40;87.10
2062;DHT22;11070;51.336;12.340;2023-05-29T08:05:50;22.60;84.20
2062;DHT22;11070;51.336;12.340;2023-05-29T08:08:16;22.70;81.70
2062;DHT22;11070;51.336;12.340;2023-05-29T08:10:41;23.00;80.30
2062;DHT22;11070;51.336;12.340;2023-05-29T08:13:07;23.30;77.80
2062;DHT22;11070;51.336;12.340;2023-05-29T08:15:33;23.40;75.60
2062;DHT22;11070;51.336;12.340;2023-05-29T08:17:58;23.50;73.40
2062;DHT22;11070;51.336;12.340;2023-05-29T08:20:24;23.30;73.70
2062;DHT22;11070;51.336;12.340;2023-05-29T08:22:49;23.60;72.90
2062;DHT22;11070;51.336;12.340;2023-05-29T08:25:15;23.90;72.10
2062;DHT22;11070;51.336;12.340;2023-05-29T08:27:41;23.90;68.40
2062;DHT22;11070;51.336;12.340;2023-05-29T08:30:07;23.90;68.10
2062;DHT22;11070;51.336;12.340;2023-05-29T08:32:32;23.50;67.60
2062;DHT22;11070;51.336;12.340;2023-05-29T08:34:58;23.60;68.00
2062;DHT22;11070;51.336;12.340;2023-05-29T08:37:24;23.90;67.00
2062;DHT22;11070;51.336;12.340;2023-05-29T08:39:50;24.30;66.80
2062;DHT22;11070;51.336;12.340;2023-05-29T08:42:21;24.70;64.00
2062;DHT22;11070;51.336;12.340;2023-05-29T08:44:53;24.60;62.40
2062;DHT22;11070;51.336;12.340;2023-05-29T08:47:22;24.70;62.80
2062;DHT22;11070;51.336;12.340;2023-05-29T08:49:58;24.60;61.60
2062;DHT22;11070;51.336;12.340;2023-05-29T08:52:25;24.80;62.10
2062;DHT22;11070;51.336;12.340;2023-05-29T08:54:53;25.00;60.00
2062;DHT22;11070;51.336;12.340;2023-05-29T08:57:20;25.00;59.00
2062;DHT22;11070;51.336;12.340;2023-05-29T08:59:51;25.00;59.20
2062;DHT22;11070;51.336;12.340;2023-05-29T09:02:20;25.10;59.50
2062;DHT22;11070;51.336;12.340;2023-05-29T09:04:45;25.40;58.70
2062;DHT22;11070;51.336;12.340;2023-05-29T09:07:16;25.90;57.60
2062;DHT22;11070;51.336;12.340;2023-05-29T09:09:47;26.00;56.50
2062;DHT22;11070;51.336;12.340;2023-05-29T09:12:14;25.80;55.70
2062;DHT22;11070;51.336;12.340;2023-05-29T09:14:41;25.50;56.40
2062;DHT22;11070;51.336;12.340;2023-05-29T09:17:09;25.90;56.30
2062;DHT22;11070;51.336;12.340;2023-05-29T09:19:35;26.00;56.00
2062;DHT22;11070;51.336;12.340;2023-05-29T09:22:08;26.00;55.90
2062;DHT22;11070;51.336;12.340;2023-05-29T09:24:36;26.00;55.00
2062;DHT22;11070;51.336;12.340;2023-05-29T09:27:12;26.10;54.80
2062;DHT22;11070;51.336;12.340;2023-05-29T09:29:39;26.50;54.40
2062;DHT22;11070;51.336;12.340;2023-05-29T09:32:10;26.90;53.80
2062;DHT22;11070;51.336;12.340;2023-05-29T09:34:37;27.20;53.10
2062;DHT22;11070;51.336;12.340;2023-05-29T09:37:04;27.20;52.20
2062;DHT22;11070;51.336;12.340;2023-05-29T09:39:54;27.00;52.50
2062;DHT22;11070;51.336;12.340;2023-05-29T09:42:20;27.10;52.10
2062;DHT22;11070;51.336;12.340;2023-05-29T09:44:48;26.90;52.40
2062;DHT22;11070;51.336;12.340;2023-05-29T09:47:17;27.30;52.50
2062;DHT22;11070;51.336;12.340;2023-05-29T09:49:43;27.40;51.80
2062;DHT22;11070;51.336;12.340;2023-05-29T09:52:13;27.40;51.60
2062;DHT22;11070;51.336;12.340;2023-05-29T09:54:43;27.60;51.50
2062;DHT22;11070;51.336;12.340;2023-05-29T09:57:16;27.90;50.50
2062;DHT22;11070;51.336;12.340;2023-05-29T09:59:46;28.00;50.50
2062;DHT22;11070;51.336;12.340;2023-05-29T10:02:17;27.90;49.70
2062;DHT22;11070;51.336;12.340;2023-05-29T10:04:43;28.00;49.70
2062;DHT22;11070;51.336;12.340;2023-05-29T10:07:28;27.90;49.70
2062;DHT22;11070;51.336;12.340;2023-05-29T10:10:05;28.10;49.60
2062;DHT22;11070;51.336;12.340;2023-05-29T10:12:36;28.50;49.60
2062;DHT22;11070;51.336;12.340;2023-05-29T10:15:02;28.80;48.20
2062;DHT22;11070;51.336;12.340;2023-05-29T10:17:33;29.20;47.70
2062;DHT22;11070;51.336;12.340;2023-05-29T10:20:02;29.10;46.80
2062;DHT22;11070;51.336;12.340;2023-05-29T10:22:31;29.10;46.80
2062;DHT22;11070;51.336;12.340;2023-05-29T10:24:58;28.70;47.50
2062;DHT22;11070;51.336;12.340;2023-05-29T10:27:25;29.00;47.40
2062;DHT22;11070;51.336;12.340;2023-05-29T10:30:04;29.00;46.10
2062;DHT22;11070;51.336;12.340;2023-05-29T10:35:37;28.60;47.10
2062;DHT22;11070;51.336;12.340;2023-05-29T10:38:14;28.40;46.70
2062;DHT22;11070;51.336;12.340;2023-05-29T10:40:42;28.30;46.60
2062;DHT22;11070;51.336;12.340;2023-05-29T10:43:08;28.30;46.60
2062;DHT22;11070;51.336;12.340;2023-05-29T10:50:36;29.00;45.40
2062;DHT22;11070;51.336;12.340;2023-05-29T10:53:02;29.50;44.70
2062;DHT22;11070;51.336;12.340;2023-05-29T10:55:35;29.50;44.80
2062;DHT22;11070;51.336;12.340;2023-05-29T10:58:09;29.40;44.20
2062;DHT22;11070;51.336;12.340;2023-05-29T11:00:40;29.40;43.50
2062;DHT22;11070;51.336;12.340;2023-05-29T11:03:10;29.40;43.80
2062;DHT22;11070;51.336;12.340;2023-05-29T11:05:56;29.70;43.70
2062;DHT22;11070;51.336;12.340;2023-05-29T11:08:55;29.70;43.20
2062;DHT22;11070;51.336;12.340;2023-05-29T11:13:56;29.10;43.20
2062;DHT22;11070;51.336;12.340;2023-05-29T11:18:52;29.00;43.10
2062;DHT22;11070;51.336;12.340;2023-05-29T11:21:38;29.30;42.80
2062;DHT22;11070;51.336;12.340;2023-05-29T11:24:07;29.40;42.80
2062;DHT22;11070;51.336;12.340;2023-05-29T11:26:39;29.90;42.20
2062;DHT22;11070;51.336;12.340;2023-05-29T11:29:05;30.50;40.80
2062;DHT22;11070;51.336;12.340;2023-05-29T11:31:33;30.80;41.10
2062;DHT22;11070;51.336;12.340;2023-05-29T11:34:00;30.50;41.30
2062;DHT22;11070;51.336;12.340;2023-05-29T11:36:28;30.10;42.40
2062;DHT22;11070;51.336;12.340;2023-05-29T11:38:53;30.40;42.70
2062;DHT22;11070;51.336;12.340;2023-05-29T11:41:19;29.90;42.90
2062;DHT22;11070;51.336;12.340;2023-05-29T11:44:02;29.40;43.50
2062;DHT22;11070;51.336;12.340;2023-05-29T11:46:29;28.60;43.80
2062;DHT22;11070;51.336;12.340;2023-05-29T11:48:58;28.20;44.80
2062;DHT22;11070;51.336;12.340;2023-05-29T11:51:24;28.10;44.60
2062;DHT22;11070;51.336;12.340;2023-05-29T11:53:50;28.10;44.40
2062;DHT22;11070;51.336;12.340;2023-05-29T11:56:24;27.80;45.10
2062;DHT22;11070;51.336;12.340;2023-05-29T11:58:51;27.70;45.00
2062;DHT22;11070;51.336;12.340;2023-05-29T12:01:20;27.80;44.70
2062;DHT22;11070;51.336;12.340;2023-05-29T12:03:46;28.50;45.10
2062;DHT22;11070;51.336;12.340;2023-05-29T12:06:12;28.90;43.50
2062;DHT22;11070;51.336;12.340;2023-05-29T12:08:38;28.70;43.50
2062;DHT22;11070;51.336;12.340;2023-05-29T12:11:05;28.10;43.50
2062;DHT22;11070;51.336;12.340;2023-05-29T12:13:31;28.20;43.30
2062;DHT22;11070;51.336;12.340;2023-05-29T12:15:58;28.20;43.30
2062;DHT22;11070;51.336;12.340;2023-05-29T12:18:25;28.30;43.10
2062;DHT22;11070;51.336;12.340;2023-05-29T12:21:00;28.90;42.40
2062;DHT22;11070;51.336;12.340;2023-05-29T12:23:28;28.90;41.90
2062;DHT22;11070;51.336;12.340;2023-05-29T12:25:54;28.20;43.00
2062;DHT22;11070;51.336;12.340;2023-05-29T12:28:20;28.30;43.40
2062;DHT22;11070;51.336;12.340;2023-05-29T12:30:47;28.90;42.50
2062;DHT22;11070;51.336;12.340;2023-05-29T12:33:34;29.20;42.80
2062;DHT22;11070;51.336;12.340;2023-05-29T12:36:11;30.00;41.50
2062;DHT22;11070;51.336;12.340;2023-05-29T12:38:51;30.20;41.30
2062;DHT22;11070;51.336;12.340;2023-05-29T12:41:28;30.20;40.60
2062;DHT22;11070;51.336;12.340;2023-05-29T12:43:57;30.50;40.20
2062;DHT22;11070;51.336;12.340;2023-05-29T12:46:26;30.70;39.40
2062;DHT22;11070;51.336;12.340;2023-05-29T12:48:53;31.20;39.20
2062;DHT22;11070;51.336;12.340;2023-05-29T12:51:27;31.70;38.30
2062;DHT22;11070;51.336;12.340;2023-05-29T12:53:52;31.80;38.30
2062;DHT22;11070;51.336;12.340;2023-05-29T12:56:24;31.40;38.40
2062;DHT22;11070;51.336;12.340;2023-05-29T12:58:51;31.00;38.70
2062;DHT22;11070;51.336;12.340;2023-05-29T13:01:17;30.00;39.50
2062;DHT22;11070;51.336;12.340;2023-05-29T13:03:43;29.70;40.20
2062;DHT22;11070;51.336;12.340;2023-05-29T13:06:10;28.60;40.20
2062;DHT22;11070;51.336;12.340;2023-05-29T13:08:36;28.70;40.90
2062;DHT22;11070;51.336;12.340;2023-05-29T13:11:02;28.50;40.60
2062;DHT22;11070;51.336;12.340;2023-05-29T13:13:27;28.80;39.80
2062;DHT22;11070;51.336;12.340;2023-05-29T13:15:53;29.10;39.90
2062;DHT22;11070;51.336;12.340;2023-05-29T13:18:19;29.10;40.60
2062;DHT22;11070;51.336;12.340;2023-05-29T13:20:44;28.70;41.70
2062;DHT22;11070;51.336;12.340;2023-05-29T13:23:10;29.20;41.70
2062;DHT22;11070;51.336;12.340;2023-05-29T13:25:36;29.40;41.30
2062;DHT22;11070;51.336;12.340;2023-05-29T13:28:02;29.40;41.40
2062;DHT22;11070;51.336;12.340;2023-05-29T13:30:27;29.20;40.80
2062;DHT22;11070;51.336;12.340;2023-05-29T13:32:53;29.10;40.50
2062;DHT22;11070;51.336;12.340;2023-05-29T13:35:19;29.50;40.60
2062;DHT22;11070;51.336;12.340;2023-05-29T13:37:45;30.00;40.40
2062;DHT22;11070;51.336;12.340;2023-05-29T13:40:11;29.80;40.20
2062;DHT22;11070;51.336;12.340;2023-05-29T13:42:40;29.70;40.20
2062;DHT22;11070;51.336;12.340;2023-05-29T13:45:08;29.50;40.40
2062;DHT22;11070;51.336;12.340;2023-05-29T13:47:35;29.40;40.60
2062;DHT22;11070;51.336;12.340;2023-05-29T13:50:01;29.60;40.60
2062;DHT22;11070;51.336;12.340;2023-05-29T13:52:29;29.30;40.70
2062;DHT22;11070;51.336;12.340;2023-05-29T13:54:54;29.10;41.20
2062;DHT22;11070;51.336;12.340;2023-05-29T13:57:20;29.30;41.40
2062;DHT22;11070;51.336;12.340;2023-05-29T13:59:46;29.40;40.90
2062;DHT22;11070;51.336;12.340;2023-05-29T14:02:11;29.60;41.10
2062;DHT22;11070;51.336;12.340;2023-05-29T14:04:39;29.50;40.20
2062;DHT22;11070;51.336;12.340;2023-05-29T14:07:05;29.80;40.50
2062;DHT22;11070;51.336;12.340;2023-05-29T14:09:31;29.70;39.80
2062;DHT22;11070;51.336;12.340;2023-05-29T14:11:58;30.00;39.90
2062;DHT22;11070;51.336;12.340;2023-05-29T14:14:25;29.80;39.20
2062;DHT22;11070;51.336;12.340;2023-05-29T14:16:51;29.60;39.70
2062;DHT22;11070;51.336;12.340;2023-05-29T14:19:17;29.00;39.80
2062;DHT22;11070;51.336;12.340;2023-05-29T14:21:44;28.80;41.10
2062;DHT22;11070;51.336;12.340;2023-05-29T14:24:09;28.80;41.60
2062;DHT22;11070;51.336;12.340;2023-05-29T14:26:35;28.90;41.30
2062;DHT22;11070;51.336;12.340;2023-05-29T14:29:02;28.60;41.50
2062;DHT22;11070;51.336;12.340;2023-05-29T14:31:27;28.60;41.90
2062;DHT22;11070;51.336;12.340;2023-05-29T14:33:53;28.30;41.90
2062;DHT22;11070;51.336;12.340;2023-05-29T14:36:19;28.30;42.30
2062;DHT22;11070;51.336;12.340;2023-05-29T14:38:44;28.00;43.30
2062;DHT22;11070;51.336;12.340;2023-05-29T14:41:11;28.10;43.00
2062;DHT22;11070;51.336;12.340;2023-05-29T14:43:38;28.00;43.40
2062;DHT22;11070;51.336;12.340;2023-05-29T14:46:05;28.10;43.30
2062;DHT22;11070;51.336;12.340;2023-05-29T14:48:30;28.30;43.50
2062;DHT22;11070;51.336;12.340;2023-05-29T14:50:56;28.20;43.50
2062;DHT22;11070;51.336;12.340;2023-05-29T14:53:22;28.00;43.50
2062;DHT22;11070;51.336;12.340;2023-05-29T14:55:49;27.90;43.60
2062;DHT22;11070;51.336;12.340;2023-05-29T14:58:14;27.90;43.40
2062;DHT22;11070;51.336;12.340;2023-05-29T15:00:40;27.80;43.30
2062;DHT22;11070;51.336;12.340;2023-05-29T15:03:06;27.80;42.80
2062;DHT22;11070;51.336;12.340;2023-05-29T15:05:31;27.50;43.20
2062;DHT22;11070;51.336;12.340;2023-05-29T15:07:57;27.40;42.80
2062;DHT22;11070;51.336;12.340;2023-05-29T15:10:26;26.90;43.30
2062;DHT22;11070;51.336;12.340;2023-05-29T15:12:53;26.80;44.30
2062;DHT22;11070;51.336;12.340;2023-05-29T15:15:26;26.80;44.70
2062;DHT22;11070;51.336;12.340;2023-05-29T15:17:53;26.80;44.50
2062;DHT22;11070;51.336;12.340;2023-05-29T15:20:25;26.80;44.30
2062;DHT22;11070;51.336;12.340;2023-05-29T15:22:51;26.90;44.70
2062;DHT22;11070;51.336;12.340;2023-05-29T15:25:20;26.80;45.60
2062;DHT22;11070;51.336;12.340;2023-05-29T15:27:46;26.80;45.10
2062;DHT22;11070;51.336;12.340;2023-05-29T15:30:17;26.80;45.30
2062;DHT22;11070;51.336;12.340;2023-05-29T15:32:44;26.50;45.30
2062;DHT22;11070;51.336;12.340;2023-05-29T15:35:12;26.50;46.00
2062;DHT22;11070;51.336;12.340;2023-05-29T15:37:38;26.30;46.20
2062;DHT22;11070;51.336;12.340;2023-05-29T15:40:05;26.20;46.40
2062;DHT22;11070;51.336;12.340;2023-05-29T15:42:32;26.10;46.60
2062;DHT22;11070;51.336;12.340;2023-05-29T15:44:58;25.90;47.20
2062;DHT22;11070;51.336;12.340;2023-05-29T15:47:23;26.20;46.90
2062;DHT22;11070;51.336;12.340;2023-05-29T15:49:49;26.10;46.60